createdAt,value
2023-04-13T00:01:01.348Z,61.86
2023-04-13T00:04:06.294Z,62.01
2023-04-13T00:07:20.318Z,62.27
2023-04-13T00:10:24.025Z,62.58
2023-04-13T00:13:32.136Z,62.70
2023-04-13T00:16:50.297Z,62.51
2023-04-13T00:19:57.920Z,62.52
2023-04-13T00:22:57.684Z,62.93
2023-04-13T00:25:51.559Z,63.17
2023-04-13T00:29:12.571Z,62.90
2023-04-13T00:32:19.147Z,63.11
2023-04-13T00:35:43.767Z,63.13
2023-04-13T00:39:00.862Z,63.35
2023-04-13T00:42:08.151Z,63.53
2023-04-13T00:45:34.072Z,63.35
2023-04-13T00:48:56.622Z,63.64
2023-04-13T00:51:53.061Z,63.94
2023-04-13T00:55:20.733Z,63.76
2023-04-13T00:58:27.392Z,64.08
2023-04-13T01:01:20.884Z,63.92
2023-04-13T01:04:37.387Z,64.23
2023-04-13T01:08:09.425Z,63.94
2023-04-13T01:11:12.119Z,64.12
2023-04-13T01:14:35.049Z,63.98
2023-04-13T01:17:46.397Z,64.23
2023-04-13T01:20:50.672Z,64.28
2023-04-13T01:24:24.394Z,64.37
2023-04-13T01:28:07.608Z,64.27
2023-04-13T01:31:15.780Z,64.49
2023-04-13T01:34:21.675Z,64.31
2023-04-13T01:37:19.646Z,64.29
2023-04-13T01:40:45.066Z,64.32
2023-04-13T01:44:03.308Z,64.51
2023-04-13T01:47:30.808Z,64.45
2023-04-13T01:50:52.175Z,64.33
2023-04-13T01:54:27.549Z,64.36
2023-04-13T01:57:24.890Z,64.59
2023-04-13T02:00:36.400Z,64.53
2023-04-13T02:03:49.229Z,64.78
2023-04-13T02:07:04.369Z,64.68
2023-04-13T02:10:16.777Z,65.55
2023-04-13T02:13:53.660Z,65.75
2023-04-13T02:17:11.394Z,66.25
2023-04-13T02:20:40.493Z,66.87
2023-04-13T02:24:12.871Z,67.25
2023-04-13T02:27:48.385Z,68.06
2023-04-13T02:31:09.228Z,68.55
2023-04-13T02:34:35.765Z,68.99
2023-04-13T02:38:04.846Z,69.51
2023-04-13T02:41:23.727Z,69.94
2023-04-13T02:44:51.699Z,70.24
2023-04-13T02:48:28.825Z,70.16
2023-04-13T02:51:48.569Z,70.51
2023-04-13T02:55:15.622Z,71.03
2023-04-13T02:59:00.896Z,71.67
2023-04-13T03:02:15.498Z,72.28
2023-04-13T03:06:04.529Z,72.16
2023-04-13T03:09:40.180Z,72.50
2023-04-13T03:12:56.581Z,72.80
2023-04-13T03:16:23.335Z,72.90
2023-04-13T03:19:52.430Z,73.60
2023-04-13T03:23:26.646Z,73.29
2023-04-13T03:26:59.127Z,73.83
2023-04-13T03:30:25.570Z,74.15
2023-04-13T03:34:02.467Z,74.14
2023-04-13T03:37:43.078Z,74.41
2023-04-13T03:41:35.283Z,74.46
2023-04-13T03:45:06.202Z,74.92
2023-04-13T03:48:31.518Z,74.98
2023-04-13T03:52:20.600Z,75.40
2023-04-13T03:55:55.372Z,75.04
2023-04-13T03:59:35.647Z,75.58
2023-04-13T04:03:15.433Z,75.83
2023-04-13T04:06:49.236Z,75.91
2023-04-13T04:10:22.330Z,75.92
2023-04-13T04:13:51.122Z,76.32
2023-04-13T04:17:18.277Z,76.59
2023-04-13T04:21:07.656Z,76.74
2023-04-13T04:24:45.924Z,76.66
2023-04-13T04:28:02.799Z,76.83
2023-04-13T04:31:01.780Z,76.74
2023-04-13T04:33:42.868Z,77.08
2023-04-13T04:36:44.852Z,76.96
2023-04-13T04:39:38.072Z,76.94
2023-04-13T04:42:30.820Z,77.01
2023-04-13T04:45:33.377Z,77.29
2023-04-13T04:48:34.824Z,77.26
2023-04-13T04:51:24.935Z,77.48
2023-04-13T04:54:18.352Z,77.35
2023-04-13T04:57:07.053Z,77.63
2023-04-13T04:59:57.344Z,77.49
2023-04-13T05:02:51.205Z,77.54
2023-04-13T05:05:47.587Z,77.75
2023-04-13T05:08:44.936Z,77.63
2023-04-13T05:11:41.349Z,77.70
2023-04-13T05:14:52.833Z,77.66
2023-04-13T05:17:42.954Z,77.64
2023-04-13T05:20:30.807Z,77.49
2023-04-13T05:23:29.851Z,76.85
2023-04-13T05:26:20.186Z,76.97
2023-04-13T05:29:16.472Z,76.83
2023-04-13T05:32:12.289Z,76.65
2023-04-13T05:35:07.313Z,76.71
2023-04-13T05:38:21.135Z,76.62
2023-04-13T05:41:00.883Z,76.50
2023-04-13T05:43:52.193Z,76.40
2023-04-13T05:46:36.953Z,76.22
2023-04-13T05:49:23.151Z,76.21
2023-04-13T05:52:07.725Z,75.90
2023-04-13T05:55:08.231Z,75.76
2023-04-13T05:57:53.301Z,75.72
2023-04-13T06:00:39.086Z,75.88
2023-04-13T06:03:29.084Z,75.90
2023-04-13T06:06:18.950Z,76.11
2023-04-13T06:09:09.037Z,76.03
2023-04-13T06:11:46.561Z,75.94
2023-04-13T06:14:37.328Z,76.26
2023-04-13T06:17:14.209Z,76.40
2023-04-13T06:20:00.316Z,76.14
2023-04-13T06:22:49.090Z,76.16
2023-04-13T06:25:36.220Z,76.16
2023-04-13T06:28:16.934Z,76.01
2023-04-13T06:31:14.889Z,76.25
2023-04-13T06:34:16.261Z,76.22
2023-04-13T06:37:00.596Z,76.34
2023-04-13T06:39:37.998Z,76.22
2023-04-13T06:42:27.384Z,76.25
2023-04-13T06:45:34.246Z,76.07
2023-04-13T06:48:19.924Z,76.16
2023-04-13T06:51:16.669Z,75.97
2023-04-13T06:53:53.650Z,75.85
2023-04-13T06:56:30.453Z,75.92
2023-04-13T06:59:12.929Z,76.16
2023-04-13T07:01:47.283Z,76.18
2023-04-13T07:04:21.089Z,75.51
2023-04-13T07:07:02.637Z,75.27
2023-04-13T07:09:56.696Z,75.24
2023-04-13T07:12:33.493Z,75.17
2023-04-13T07:15:11.939Z,75.36
2023-04-13T07:18:02.432Z,75.02
2023-04-13T07:20:43.779Z,74.89
2023-04-13T07:23:26.089Z,74.64
2023-04-13T07:26:13.309Z,74.63
2023-04-13T07:28:47.794Z,74.82
2023-04-13T07:31:25.850Z,75.24
2023-04-13T07:34:11.310Z,75.43
2023-04-13T07:36:56.904Z,75.37
2023-04-13T07:39:29.255Z,75.37
2023-04-13T07:42:05.936Z,75.35
2023-04-13T07:44:52.834Z,75.22
2023-04-13T07:47:29.122Z,75.05
2023-04-13T07:50:07.825Z,74.93
2023-04-13T07:52:42.346Z,74.96
2023-04-13T07:55:19.931Z,74.99
2023-04-13T07:57:56.090Z,74.81
2023-04-13T08:00:32.766Z,74.28
2023-04-13T08:03:07.786Z,73.89
2023-04-13T08:05:41.093Z,73.78
2023-04-13T08:08:13.355Z,73.63
2023-04-13T08:10:46.443Z,73.28
2023-04-13T08:13:18.768Z,73.03
2023-04-13T08:15:47.814Z,72.93
2023-04-13T08:18:22.532Z,72.60
2023-04-13T08:20:56.648Z,72.62
2023-04-13T08:23:29.222Z,72.85
2023-04-13T08:26:02.854Z,72.34
2023-04-13T08:28:37.041Z,72.20
2023-04-13T08:31:16.982Z,72.10
2023-04-13T08:33:55.925Z,71.89
2023-04-13T08:36:28.789Z,71.52
2023-04-13T08:39:10.367Z,70.95
2023-04-13T08:41:45.312Z,70.87
2023-04-13T08:44:15.109Z,70.50
2023-04-13T08:46:52.810Z,70.64
2023-04-13T08:49:36.036Z,70.64
2023-04-13T08:52:41.279Z,70.29
2023-04-13T08:55:20.722Z,70.33
2023-04-13T08:57:55.749Z,70.12
2023-04-13T09:00:33.956Z,69.99
2023-04-13T09:03:19.737Z,70.11
2023-04-13T09:06:05.451Z,69.87
2023-04-13T09:08:47.315Z,69.22
2023-04-13T09:11:22.345Z,69.19
2023-04-13T09:13:57.492Z,69.07
2023-04-13T09:16:33.250Z,68.93
2023-04-13T09:19:20.346Z,68.70
2023-04-13T09:21:51.695Z,68.82
2023-04-13T09:24:39.936Z,68.41
2023-04-13T09:27:21.630Z,68.40
2023-04-13T09:29:57.345Z,68.41
2023-04-13T09:32:29.008Z,68.03
2023-04-13T09:35:10.106Z,68.34
2023-04-13T09:37:46.169Z,68.05
2023-04-13T09:40:20.573Z,67.99
2023-04-13T09:43:09.956Z,68.40
2023-04-13T09:45:45.498Z,68.32
2023-04-13T09:48:25.861Z,67.61
2023-04-13T09:51:06.419Z,67.32
2023-04-13T09:53:49.761Z,67.52
2023-04-13T09:56:24.677Z,67.58
2023-04-13T09:59:05.550Z,67.55
2023-04-13T10:01:41.094Z,67.40
2023-04-13T10:04:24.344Z,67.49
2023-04-13T10:07:13.509Z,67.69
2023-04-13T10:09:56.644Z,67.96
2023-04-13T10:12:40.235Z,67.86
2023-04-13T10:15:58.680Z,67.88
2023-04-13T10:18:42.428Z,68.13
2023-04-13T10:21:21.144Z,68.39
2023-04-13T10:23:57.862Z,68.79
2023-04-13T10:26:39.328Z,68.61
2023-04-13T10:29:14.999Z,68.63
2023-04-13T10:32:06.484Z,68.23
2023-04-13T10:34:43.856Z,67.65
2023-04-13T10:37:32.810Z,67.74
2023-04-13T10:40:10.715Z,67.90
2023-04-13T10:42:53.407Z,67.56
2023-04-13T10:45:38.007Z,67.37
2023-04-13T10:48:22.437Z,67.17
2023-04-13T10:51:05.657Z,67.28
2023-04-13T10:53:45.792Z,66.87
2023-04-13T10:56:35.004Z,66.92
2023-04-13T10:59:20.301Z,66.93
2023-04-13T11:02:01.087Z,66.28
2023-04-13T11:04:49.564Z,66.16
2023-04-13T11:07:46.361Z,66.22
2023-04-13T11:10:32.308Z,66.07
2023-04-13T11:13:10.302Z,66.05
2023-04-13T11:15:55.062Z,65.48
2023-04-13T11:18:44.431Z,65.45
2023-04-13T11:21:21.132Z,65.25
2023-04-13T11:24:23.485Z,64.94
2023-04-13T11:27:16.433Z,64.84
2023-04-13T11:30:23.532Z,65.18
2023-04-13T11:33:04.025Z,65.15
2023-04-13T11:35:50.337Z,65.46
2023-04-13T11:38:32.665Z,65.22
2023-04-13T11:41:17.133Z,65.19
2023-04-13T11:44:10.490Z,64.76
2023-04-13T11:46:57.814Z,63.75
2023-04-13T11:49:48.052Z,63.41
2023-04-13T11:52:33.972Z,63.15
2023-04-13T11:55:25.672Z,63.42
2023-04-13T11:58:15.804Z,63.51
2023-04-13T12:01:19.369Z,63.75
2023-04-13T12:04:14.647Z,64.17
2023-04-13T12:07:20.792Z,64.59
2023-04-13T12:10:22.523Z,65.55
2023-04-13T12:13:35.819Z,65.49
2023-04-13T12:19:30.289Z,66.86
2023-04-13T12:22:23.896Z,66.67
2023-04-13T12:25:35.103Z,66.74
2023-04-13T12:28:15.483Z,66.61
2023-04-13T12:30:55.114Z,66.81
2023-04-13T12:33:37.865Z,67.06
2023-04-13T12:36:31.415Z,67.41
2023-04-13T12:39:34.118Z,67.23
2023-04-13T12:42:17.817Z,67.53
2023-04-13T12:45:21.315Z,67.39
2023-04-13T12:48:10.430Z,67.65
2023-04-13T12:50:59.332Z,67.41
2023-04-13T12:53:52.601Z,67.68
2023-04-13T12:56:46.888Z,67.66
2023-04-13T12:59:35.882Z,67.56
2023-04-13T13:02:24.170Z,67.50
2023-04-13T13:05:16.839Z,67.81
2023-04-13T13:08:07.227Z,67.67
2023-04-13T13:10:58.741Z,67.25
2023-04-13T13:13:48.529Z,67.38
2023-04-13T13:16:44.790Z,67.47
2023-04-13T13:19:27.861Z,67.36
2023-04-13T13:22:30.757Z,68.03
2023-04-13T13:25:35.530Z,68.18
2023-04-13T13:28:22.806Z,68.41
2023-04-13T13:31:19.934Z,68.60
2023-04-13T13:34:01.751Z,69.06
2023-04-13T13:36:51.338Z,69.40
2023-04-13T13:39:47.250Z,69.73
2023-04-13T13:42:50.095Z,69.79
2023-04-13T13:45:34.379Z,70.11
2023-04-13T13:48:22.214Z,70.25
2023-04-13T13:51:25.818Z,70.73
2023-04-13T13:54:22.914Z,71.32
2023-04-13T13:57:12.132Z,71.87
2023-04-13T14:00:16.253Z,71.58
2023-04-13T14:03:14.339Z,72.13
2023-04-13T14:06:36.115Z,71.34
2023-04-13T14:09:53.624Z,71.83
2023-04-13T14:13:32.199Z,71.88
2023-04-13T14:17:11.272Z,72.34
2023-04-13T14:20:59.477Z,72.78
2023-04-13T14:24:48.611Z,73.47
2023-04-13T14:28:31.929Z,73.76
2023-04-13T14:32:09.594Z,74.23
2023-04-13T14:35:58.664Z,74.65
2023-04-13T14:39:47.731Z,75.31
2023-04-13T14:43:36.821Z,75.79
2023-04-13T14:47:17.748Z,75.86
2023-04-13T14:51:03.865Z,76.33
2023-04-13T14:54:45.163Z,76.92
2023-04-13T14:58:25.743Z,77.10
2023-04-13T15:02:07.757Z,78.01
2023-04-13T15:05:33.383Z,78.19
2023-04-13T15:09:22.534Z,78.33
2023-04-13T15:12:50.689Z,79.19
2023-04-13T15:16:16.419Z,79.46
2023-04-13T15:19:46.528Z,79.57
2023-04-13T15:23:12.355Z,80.34
2023-04-13T15:26:56.347Z,80.57
2023-04-13T15:30:04.475Z,80.71
2023-04-13T15:33:53.581Z,80.94
2023-04-13T15:37:24.558Z,81.31
2023-04-13T15:41:03.776Z,81.60
2023-04-13T15:44:35.630Z,82.02
2023-04-13T15:48:09.544Z,82.54
2023-04-13T15:52:01.576Z,82.71
2023-04-13T15:55:24.841Z,82.64
2023-04-13T15:59:14.006Z,82.97
2023-04-13T16:03:03.473Z,83.01
2023-04-13T16:07:05.068Z,83.21
2023-04-13T16:10:48.057Z,83.40
2023-04-13T16:14:30.508Z,83.48
2023-04-13T16:18:12.089Z,83.79
2023-04-13T16:22:01.270Z,84.17
2023-04-13T16:25:50.421Z,84.19
2023-04-13T16:29:33.543Z,84.54
2023-04-13T16:33:15.652Z,84.63
2023-04-13T16:37:04.896Z,84.88
2023-04-13T16:40:52.965Z,84.81
2023-04-13T16:44:20.843Z,85.22
2023-04-13T16:47:53.849Z,84.89
2023-04-13T16:51:43.008Z,85.04
2023-04-13T16:55:31.419Z,85.48
2023-04-13T16:59:20.827Z,85.87
2023-04-13T17:03:06.992Z,86.15
2023-04-13T17:06:42.370Z,86.44
2023-04-13T17:10:10.848Z,86.24
2023-04-13T17:13:53.037Z,86.69
2023-04-13T17:17:30.792Z,86.91
2023-04-13T17:21:11.028Z,86.70
2023-04-13T17:25:00.173Z,86.89
2023-04-13T17:28:39.354Z,87.07
2023-04-13T17:32:28.205Z,87.22
2023-04-13T17:36:16.289Z,87.61
2023-04-13T17:40:08.496Z,87.57
2023-04-13T17:43:46.618Z,87.66
2023-04-13T17:47:22.268Z,87.95
2023-04-13T17:50:50.102Z,88.03
2023-04-13T17:54:21.076Z,88.27
2023-04-13T17:57:41.770Z,88.66
2023-04-13T18:01:15.523Z,88.60
2023-04-13T18:05:03.934Z,88.73
2023-04-13T18:08:33.606Z,88.88
2023-04-13T18:12:22.681Z,89.13
2023-04-13T18:15:56.696Z,89.01
2023-04-13T18:19:37.832Z,89.20
2023-04-13T18:23:26.952Z,89.19
2023-04-13T18:27:16.037Z,89.73
2023-04-13T18:30:58.490Z,89.83
2023-04-13T18:34:36.267Z,89.52
2023-04-13T18:38:12.849Z,89.66
2023-04-13T18:41:39.046Z,89.97
2023-04-13T18:45:29.583Z,89.96
2023-04-13T18:49:11.787Z,90.18
2023-04-13T18:52:57.390Z,89.94
2023-04-13T18:56:31.907Z,90.07
2023-04-13T19:00:21.000Z,90.09
2023-04-13T19:04:10.216Z,90.45
2023-04-13T19:07:52.521Z,90.45
2023-04-13T19:11:28.424Z,90.54
2023-04-13T19:15:10.584Z,90.95
2023-04-13T19:18:59.374Z,91.08
2023-04-13T19:22:32.267Z,91.08
2023-04-13T19:26:21.271Z,91.28
2023-04-13T19:29:49.731Z,91.14
2023-04-13T19:33:38.886Z,91.28
2023-04-13T19:37:14.742Z,91.31
2023-04-13T19:40:48.966Z,91.35
2023-04-13T19:44:31.169Z,91.47
2023-04-13T19:48:17.170Z,91.59
2023-04-13T19:52:06.281Z,91.56
2023-04-13T19:55:37.919Z,91.58
2023-04-13T19:59:27.135Z,91.30
2023-04-13T20:03:03.190Z,91.35
2023-04-13T20:06:52.711Z,91.58
2023-04-13T20:10:42.082Z,91.61
2023-04-13T20:14:30.332Z,91.90
2023-04-13T20:18:19.626Z,92.02
2023-04-13T20:22:08.783Z,92.16
2023-04-13T20:25:57.896Z,92.42
2023-04-13T20:29:46.984Z,92.33
2023-04-13T20:33:36.056Z,92.51
2023-04-13T20:37:25.279Z,93.00
2023-04-13T20:41:14.357Z,92.85
2023-04-13T20:45:03.484Z,92.71
2023-04-13T20:48:52.405Z,93.06
2023-04-13T20:52:41.569Z,92.82
2023-04-13T20:56:30.681Z,93.12
2023-04-13T21:00:18.130Z,93.20
2023-04-13T21:04:00.240Z,93.14
2023-04-13T21:07:53.069Z,92.91
2023-04-13T21:11:41.677Z,93.23
2023-04-13T21:15:30.939Z,93.38
2023-04-13T21:19:13.002Z,92.79
2023-04-13T21:23:00.867Z,92.96
2023-04-13T21:26:50.127Z,93.12
2023-04-13T21:30:24.859Z,93.59
2023-04-13T21:34:14.234Z,93.59
2023-04-13T21:37:54.290Z,93.64
2023-04-13T21:41:37.521Z,93.30
2023-04-13T21:45:24.255Z,93.71
2023-04-13T21:49:06.416Z,93.98
2023-04-13T21:52:39.719Z,94.04
2023-04-13T21:56:28.537Z,94.02
2023-04-13T22:00:17.597Z,93.76
2023-04-13T22:03:46.541Z,94.02
2023-04-13T22:07:42.283Z,93.82
2023-04-13T22:11:15.703Z,93.87
2023-04-13T22:14:57.360Z,93.85
2023-04-13T22:18:45.441Z,93.85
2023-04-13T22:22:22.321Z,94.19
2023-04-13T22:26:11.418Z,94.27
2023-04-13T22:29:40.346Z,94.20
2023-04-13T22:33:19.926Z,93.99
2023-04-13T22:37:08.567Z,94.07
2023-04-13T22:40:42.288Z,94.22
2023-04-13T22:44:25.448Z,94.31
2023-04-13T22:48:04.835Z,94.32
2023-04-13T22:51:54.132Z,94.17
2023-04-13T22:55:36.303Z,94.10
2023-04-13T22:59:25.216Z,94.08
2023-04-13T23:03:06.910Z,94.10
2023-04-13T23:06:59.038Z,93.79
2023-04-13T23:10:32.614Z,93.85
2023-04-13T23:14:06.582Z,94.19
2023-04-13T23:17:40.518Z,94.47
2023-04-13T23:21:29.759Z,94.31
2023-04-13T23:25:01.407Z,94.21
2023-04-13T23:28:49.475Z,94.31
2023-04-13T23:32:24.395Z,94.20
2023-04-13T23:36:07.922Z,94.51
2023-04-13T23:39:57.046Z,94.68
2023-04-13T23:43:37.700Z,94.40
2023-04-13T23:47:19.583Z,94.79
2023-04-13T23:51:08.837Z,94.69
2023-04-13T23:54:44.690Z,94.74
2023-04-13T23:58:36.642Z,94.97
